Terminal Aerodrome Forecast
Issued by NWS

Home | Current Version | Previous Version | Text Only | Print | Product List | Glossary On
Versions: 1 2 3 4 5 6 7 8 9 10 11 12 13 14 15 16 17 18 19 20 21 22 23 24 25 26 27 28 29 30 31 32 33 34 35 36 37 38 39 40 41 42 43 44 45 46 47 48 49 50
000
FTUS43 KMKX 282325
TAFUES
TAF
KUES 282325Z 2900/2924 06006KT P6SM FEW006
     FM290100 05004KT 5SM BR OVC005
     FM290400 04004KT 2SM BR OVC003
     FM291300 06009KT 4SM BR OVC006
     FM291500 07010KT P6SM SCT010 BKN150
     FM292100 07012KT P6SM OVC030
     FM292300 06009KT P6SM OVC025=

USA.gov is the U.S. government's official web portal to all federal, state and local government web resources and services.